createdAt,value
2023-02-06T00:00:18.401Z,100251.69
2023-02-06T00:03:20.643Z,100251.78
2023-02-06T00:06:22.617Z,100245.81
2023-02-06T00:09:24.744Z,100247.63
2023-02-06T00:12:26.591Z,100254.75
2023-02-06T00:15:28.537Z,100255.41
2023-02-06T00:18:32.078Z,100259.09
2023-02-06T00:21:34.075Z,100260.00
2023-02-06T00:24:36.571Z,100255.88
2023-02-06T00:27:38.493Z,100259.41
2023-02-06T00:30:40.427Z,100263.97
2023-02-06T00:33:42.687Z,100258.78
2023-02-06T00:36:44.753Z,100255.38
2023-02-06T00:39:46.799Z,100256.38
2023-02-06T00:42:48.800Z,100258.31
2023-02-06T00:45:57.750Z,100252.19
2023-02-06T00:48:59.666Z,100262.75
2023-02-06T00:52:03.869Z,100269.22
2023-02-06T00:55:06.319Z,100266.72
2023-02-06T00:58:08.237Z,100269.38
2023-02-06T01:01:10.353Z,100266.81
2023-02-06T01:04:14.078Z,100260.47
2023-02-06T01:07:15.935Z,100256.19
2023-02-06T01:10:17.989Z,100256.97
2023-02-06T01:13:20.203Z,100253.25
2023-02-06T01:16:24.124Z,100258.31
2023-02-06T01:19:27.945Z,100256.28
2023-02-06T01:22:29.863Z,100262.31
2023-02-06T01:25:32.420Z,100263.91
2023-02-06T01:28:38.657Z,100267.28
2023-02-06T01:31:40.731Z,100260.91
2023-02-06T01:34:42.718Z,100265.94
2023-02-06T01:37:44.687Z,100263.97
2023-02-06T01:40:46.832Z,100263.81
2023-02-06T01:44:16.920Z,100250.47
2023-02-06T01:47:18.820Z,100252.97
2023-02-06T01:50:20.782Z,100257.19
2023-02-06T01:53:24.565Z,100256.25
2023-02-06T01:56:30.581Z,100263.94
2023-02-06T01:59:33.763Z,100267.50
2023-02-06T02:02:39.513Z,100269.91
2023-02-06T02:05:43.739Z,100270.72
2023-02-06T02:08:48.031Z,100274.03
2023-02-06T02:11:49.976Z,100279.13
2023-02-06T02:14:53.453Z,100274.47
2023-02-06T02:18:20.506Z,100275.84
2023-02-06T02:22:00.167Z,100276.63
2023-02-06T02:25:38.853Z,100284.50
2023-02-06T02:29:09.960Z,100284.34
2023-02-06T02:32:20.875Z,100275.19
2023-02-06T02:35:31.549Z,100275.81
2023-02-06T02:38:36.613Z,100287.88
2023-02-06T02:41:41.626Z,100283.31
2023-02-06T02:44:50.751Z,100284.94
2023-02-06T02:48:28.300Z,100286.63
2023-02-06T02:51:30.457Z,100281.28
2023-02-06T02:54:32.434Z,100294.22
2023-02-06T02:57:34.514Z,100285.38
2023-02-06T03:01:10.209Z,100288.22
2023-02-06T03:04:24.910Z,100278.44
2023-02-06T03:07:34.341Z,100278.47
2023-02-06T03:11:17.873Z,100273.13
2023-02-06T03:14:30.494Z,100268.72
2023-02-06T03:17:41.911Z,100271.25
2023-02-06T03:20:46.602Z,100275.50
2023-02-06T03:23:52.976Z,100284.13
2023-02-06T03:27:00.737Z,100286.69
2023-02-06T03:30:04.734Z,100293.34
2023-02-06T03:33:08.357Z,100294.19
2023-02-06T03:36:17.159Z,100297.56
2023-02-06T03:39:20.427Z,100295.00
2023-02-06T03:42:23.378Z,100294.69
2023-02-06T03:45:25.048Z,100295.63
2023-02-06T03:48:38.034Z,100286.66
2023-02-06T03:52:04.630Z,100285.69
2023-02-06T03:55:19.820Z,100281.16
2023-02-06T03:58:24.308Z,100281.09
2023-02-06T04:01:27.040Z,100281.91
2023-02-06T04:04:34.565Z,100284.47
2023-02-06T04:07:36.545Z,100281.84
2023-02-06T04:10:38.521Z,100284.34
2023-02-06T04:13:40.450Z,100288.63
2023-02-06T04:16:42.431Z,100293.63
2023-02-06T04:19:44.439Z,100287.41
2023-02-06T04:22:46.752Z,100287.63
2023-02-06T04:25:48.718Z,100284.03
2023-02-06T04:28:50.600Z,100284.03
2023-02-06T04:31:52.456Z,100283.25
2023-02-06T04:34:54.338Z,100287.41
2023-02-06T04:37:56.305Z,100292.66
2023-02-06T04:41:05.816Z,100294.22
2023-02-06T04:44:07.705Z,100290.69
2023-02-06T04:47:09.693Z,100295.09
2023-02-06T04:50:11.676Z,100299.41
2023-02-06T04:53:13.628Z,100294.97
2023-02-06T04:56:15.887Z,100294.97
2023-02-06T04:59:18.042Z,100307.03
2023-02-06T05:02:20.057Z,100312.91
2023-02-06T05:05:22.045Z,100312.78
2023-02-06T05:08:24.007Z,100314.56
2023-02-06T05:11:26.367Z,100308.31
2023-02-06T05:14:28.297Z,100318.69
2023-02-06T05:17:30.193Z,100320.41
2023-02-06T05:20:32.596Z,100317.66
2023-02-06T05:23:34.610Z,100314.13
2023-02-06T05:26:36.542Z,100318.25
2023-02-06T05:29:38.448Z,100321.56
2023-02-06T05:32:41.136Z,100315.25
2023-02-06T05:35:43.095Z,100313.28
2023-02-06T05:38:45.066Z,100314.09
2023-02-06T05:41:46.910Z,100309.50
2023-02-06T05:44:48.739Z,100308.38
2023-02-06T05:47:50.865Z,100309.75
2023-02-06T05:50:52.830Z,100311.28
2023-02-06T05:53:54.695Z,100314.56
2023-02-06T05:56:58.030Z,100314.38
2023-02-06T05:59:59.913Z,100316.13
2023-02-06T06:03:01.886Z,100312.25
2023-02-06T06:06:04.297Z,100314.69
2023-02-06T06:09:06.284Z,100317.63
2023-02-06T06:12:08.250Z,100314.66
2023-02-06T06:15:10.226Z,100324.06
2023-02-06T06:18:12.199Z,100314.06
2023-02-06T06:21:14.339Z,100315.47
2023-02-06T06:24:16.249Z,100313.34
2023-02-06T06:27:18.077Z,100318.19
2023-02-06T06:30:19.996Z,100306.25
2023-02-06T06:33:21.942Z,100315.50
2023-02-06T06:36:23.942Z,100318.78
2023-02-06T06:39:25.860Z,100317.13
2023-02-06T06:42:27.697Z,100319.91
2023-02-06T06:45:29.649Z,100315.28
2023-02-06T06:48:32.354Z,100323.75
2023-02-06T06:51:34.289Z,100321.19
2023-02-06T06:54:36.194Z,100318.47
2023-02-06T06:57:38.047Z,100313.13
2023-02-06T07:00:40.602Z,100312.94
2023-02-06T07:03:44.351Z,100313.72
2023-02-06T07:06:46.177Z,100302.81
2023-02-06T07:09:48.200Z,100298.69
2023-02-06T07:12:53.559Z,100305.50
2023-02-06T07:15:55.528Z,100301.47
2023-02-06T07:18:57.505Z,100301.94
2023-02-06T07:21:59.451Z,100309.72
2023-02-06T07:25:01.372Z,100313.59
2023-02-06T07:28:03.650Z,100304.38
2023-02-06T07:31:07.345Z,100306.63
2023-02-06T07:34:09.403Z,100312.81
2023-02-06T07:37:11.309Z,100313.69
2023-02-06T07:40:13.368Z,100317.56
2023-02-06T07:43:15.320Z,100316.72
2023-02-06T07:46:17.364Z,100316.41
2023-02-06T07:49:19.504Z,100314.63
2023-02-06T07:52:22.540Z,100313.34
2023-02-06T07:55:24.310Z,100304.25
2023-02-06T07:58:26.379Z,100307.75
2023-02-06T08:01:28.468Z,100316.41
2023-02-06T08:04:35.315Z,100315.19
2023-02-06T08:07:37.338Z,100318.59
2023-02-06T08:10:40.043Z,100324.63
2023-02-06T08:13:43.180Z,100325.03
2023-02-06T08:16:45.169Z,100329.38
2023-02-06T08:19:47.487Z,100326.66
2023-02-06T08:22:49.453Z,100328.19
2023-02-06T08:25:51.412Z,100330.06
2023-02-06T08:28:54.372Z,100334.41
2023-02-06T08:31:56.341Z,100337.34
2023-02-06T08:34:58.273Z,100327.28
2023-02-06T08:38:00.983Z,100332.53
2023-02-06T08:41:03.730Z,100329.59
2023-02-06T08:44:11.773Z,100321.84
2023-02-06T08:47:13.710Z,100322.78
2023-02-06T08:50:15.949Z,100322.34
2023-02-06T08:53:17.807Z,100321.22
2023-02-06T08:56:19.671Z,100316.38
2023-02-06T08:59:22.958Z,100312.81
2023-02-06T09:02:24.922Z,100310.47
2023-02-06T09:05:26.834Z,100305.06
2023-02-06T09:08:28.682Z,100305.78
2023-02-06T09:11:30.616Z,100324.78
2023-02-06T09:14:32.726Z,100325.59
2023-02-06T09:17:35.475Z,100322.16
2023-02-06T09:20:37.386Z,100323.31
2023-02-06T09:23:41.121Z,100321.47
2023-02-06T09:26:58.639Z,100322.84
2023-02-06T09:30:01.195Z,100327.88
2023-02-06T09:33:03.269Z,100325.88
2023-02-06T09:36:06.776Z,100334.09
2023-02-06T09:39:09.647Z,100333.88
2023-02-06T09:42:33.958Z,100338.84
2023-02-06T09:45:36.372Z,100334.00
2023-02-06T09:48:40.508Z,100332.94
2023-02-06T09:51:56.125Z,100314.88
2023-02-06T09:55:23.392Z,100315.09
2023-02-06T09:58:44.128Z,100327.56
2023-02-06T10:01:56.182Z,100328.19
2023-02-06T10:05:31.173Z,100321.22
2023-02-06T10:09:03.330Z,100321.22
2023-02-06T10:12:42.394Z,100319.97
2023-02-06T10:15:47.868Z,100318.81
2023-02-06T10:18:54.682Z,100306.75
2023-02-06T10:22:03.592Z,100300.28
2023-02-06T10:25:16.611Z,100305.22
2023-02-06T10:28:21.329Z,100299.91
2023-02-06T10:31:26.520Z,100300.19
2023-02-06T10:34:40.726Z,100303.06
2023-02-06T10:38:07.884Z,100304.09
2023-02-06T10:41:57.382Z,100304.28
2023-02-06T10:45:19.699Z,100310.66
2023-02-06T10:48:34.236Z,100296.94
2023-02-06T10:51:42.526Z,100294.53
2023-02-06T10:54:52.445Z,100298.41
2023-02-06T10:58:05.505Z,100311.22
2023-02-06T11:01:25.068Z,100311.38
2023-02-06T11:04:35.505Z,100321.94
2023-02-06T11:07:50.285Z,100318.97
2023-02-06T11:10:52.618Z,100313.09
2023-02-06T11:14:11.490Z,100310.09
2023-02-06T11:17:17.227Z,100306.22
2023-02-06T11:20:32.821Z,100309.16
2023-02-06T11:23:35.242Z,100311.84
2023-02-06T11:26:59.239Z,100308.59
2023-02-06T11:30:18.759Z,100304.31
2023-02-06T11:33:26.847Z,100303.25
2023-02-06T11:36:38.980Z,100303.41
2023-02-06T11:39:41.135Z,100311.13
2023-02-06T11:42:44.125Z,100303.63
2023-02-06T11:45:47.435Z,100310.03
2023-02-06T11:49:01.257Z,100302.91
2023-02-06T11:52:04.069Z,100304.22
2023-02-06T11:55:06.867Z,100305.22
2023-02-06T11:58:11.764Z,100311.72
2023-02-06T12:01:22.050Z,100311.78
2023-02-06T12:04:31.507Z,100315.19
2023-02-06T12:07:50.025Z,100309.78
2023-02-06T12:11:00.493Z,100304.44
2023-02-06T12:14:13.047Z,100305.47
2023-02-06T12:17:44.136Z,100306.97
2023-02-06T12:20:59.206Z,100314.00
2023-02-06T12:24:28.744Z,100320.28
2023-02-06T12:27:34.441Z,100319.03
2023-02-06T12:30:48.330Z,100312.22
2023-02-06T12:33:55.266Z,100313.78
2023-02-06T12:37:14.471Z,100323.94
2023-02-06T12:40:38.455Z,100323.09
2023-02-06T12:43:44.522Z,100315.56
2023-02-06T12:46:50.086Z,100326.31
2023-02-06T12:50:05.216Z,100333.53
2023-02-06T12:53:20.280Z,100340.44
2023-02-06T12:56:41.207Z,100338.47
2023-02-06T12:59:57.579Z,100350.78
2023-02-06T13:03:25.113Z,100364.03
2023-02-06T13:07:03.425Z,100359.88
2023-02-06T13:10:07.173Z,100361.81
2023-02-06T13:13:33.213Z,100368.84
2023-02-06T13:16:47.968Z,100367.88
2023-02-06T13:20:01.469Z,100374.06
2023-02-06T13:23:12.275Z,100375.19
2023-02-06T13:26:14.192Z,100381.81
2023-02-06T13:29:26.142Z,100377.75
2023-02-06T13:32:41.082Z,100378.69
2023-02-06T13:35:59.932Z,100387.50
2023-02-06T13:39:14.588Z,100384.88
2023-02-06T13:42:35.500Z,100385.06
2023-02-06T13:46:00.693Z,100399.50
2023-02-06T13:49:21.041Z,100400.56
2023-02-06T13:52:39.966Z,100393.72
2023-02-06T13:56:10.899Z,100396.28
2023-02-06T13:59:21.807Z,100393.72
2023-02-06T14:02:30.238Z,100394.78
2023-02-06T14:05:48.730Z,100400.84
2023-02-06T14:08:56.595Z,100408.59
2023-02-06T14:12:35.688Z,100402.69
2023-02-06T14:15:46.541Z,100400.97
2023-02-06T14:19:08.589Z,100399.41
2023-02-06T14:22:28.424Z,100401.63
2023-02-06T14:25:48.478Z,100405.25
2023-02-06T14:29:31.827Z,100405.38
2023-02-06T14:33:07.731Z,100415.31
2023-02-06T14:36:18.564Z,100415.44
2023-02-06T14:39:42.328Z,100414.84
2023-02-06T14:42:46.159Z,100422.03
2023-02-06T14:46:05.651Z,100409.78
2023-02-06T14:49:17.497Z,100414.13
2023-02-06T14:52:25.664Z,100417.03
2023-02-06T14:55:42.253Z,100412.94
2023-02-06T14:58:48.690Z,100416.44
2023-02-06T15:01:53.158Z,100428.19
2023-02-06T15:04:55.983Z,100426.63
2023-02-06T15:07:59.846Z,100423.94
2023-02-06T15:11:04.789Z,100430.22
2023-02-06T15:14:21.127Z,100424.25
2023-02-06T15:17:26.711Z,100435.75
2023-02-06T15:20:43.633Z,100441.19
2023-02-06T15:24:07.481Z,100448.41
2023-02-06T15:27:27.598Z,100454.59
2023-02-06T15:30:30.019Z,100449.53
2023-02-06T15:33:34.608Z,100456.66
2023-02-06T15:36:38.901Z,100461.94
2023-02-06T15:39:41.980Z,100471.41
2023-02-06T15:42:44.269Z,100467.38
2023-02-06T15:45:47.567Z,100475.88
2023-02-06T15:48:52.235Z,100480.19
2023-02-06T15:51:55.079Z,100485.34
2023-02-06T15:54:58.579Z,100478.25
2023-02-06T15:58:04.345Z,100485.16
2023-02-06T16:01:16.617Z,100476.00
2023-02-06T16:04:24.330Z,100479.34
2023-02-06T16:07:32.469Z,100485.66
2023-02-06T16:10:38.328Z,100481.19
2023-02-06T16:13:40.910Z,100495.31
2023-02-06T16:16:56.261Z,100500.50
2023-02-06T16:20:04.940Z,100498.00
2023-02-06T16:23:28.874Z,100493.41
2023-02-06T16:26:49.327Z,100495.06
2023-02-06T16:29:57.457Z,100496.22
2023-02-06T16:33:08.639Z,100496.81
2023-02-06T16:36:15.438Z,100492.50
2023-02-06T16:39:17.357Z,100493.34
2023-02-06T16:42:21.802Z,100497.88
2023-02-06T16:45:26.728Z,100497.81
2023-02-06T16:48:28.686Z,100493.53
2023-02-06T16:51:32.094Z,100498.00
2023-02-06T16:54:34.351Z,100496.16
2023-02-06T16:57:39.177Z,100501.28
2023-02-06T17:00:41.385Z,100500.69
2023-02-06T17:03:43.283Z,100503.19
2023-02-06T17:06:45.230Z,100504.03
2023-02-06T17:09:48.780Z,100495.34
2023-02-06T17:12:51.094Z,100497.88
2023-02-06T17:15:53.262Z,100494.38
2023-02-06T17:18:55.354Z,100486.75
2023-02-06T17:21:57.272Z,100486.75
2023-02-06T17:24:59.142Z,100488.50
2023-02-06T17:28:01.560Z,100478.06
2023-02-06T17:31:03.647Z,100478.97
2023-02-06T17:34:05.664Z,100478.13
2023-02-06T17:37:08.203Z,100478.91
2023-02-06T17:40:19.190Z,100477.03
2023-02-06T17:43:21.132Z,100467.13
2023-02-06T17:46:23.266Z,100476.03
2023-02-06T17:49:25.307Z,100472.75
2023-02-06T17:52:27.256Z,100479.91
2023-02-06T17:55:29.422Z,100474.09
2023-02-06T17:58:31.388Z,100470.66
2023-02-06T18:01:33.433Z,100475.38
2023-02-06T18:04:35.514Z,100471.09
2023-02-06T18:07:38.504Z,100473.94
2023-02-06T18:10:40.357Z,100472.47
2023-02-06T18:13:45.411Z,100468.25
2023-02-06T18:16:47.305Z,100468.53
2023-02-06T18:19:50.659Z,100477.41
2023-02-06T18:22:52.622Z,100481.09
2023-02-06T18:25:54.638Z,100488.13
2023-02-06T18:28:56.509Z,100489.91
2023-02-06T18:31:58.712Z,100489.09
2023-02-06T18:35:00.825Z,100488.41
2023-02-06T18:38:02.896Z,100483.50
2023-02-06T18:41:06.457Z,100480.13
2023-02-06T18:44:10.201Z,100484.75
2023-02-06T18:47:14.240Z,100484.97
2023-02-06T18:50:16.195Z,100469.56
2023-02-06T18:53:18.176Z,100470.63
2023-02-06T18:56:20.150Z,100470.84
2023-02-06T18:59:22.118Z,100477.16
2023-02-06T19:02:24.089Z,100488.63
2023-02-06T19:05:26.157Z,100481.78
2023-02-06T19:08:28.063Z,100490.75
2023-02-06T19:11:29.943Z,100483.19
2023-02-06T19:14:31.899Z,100481.69
2023-02-06T19:17:34.129Z,100487.94
2023-02-06T19:20:36.376Z,100486.50
2023-02-06T19:23:41.336Z,100490.19
2023-02-06T19:26:43.256Z,100495.66
2023-02-06T19:29:45.517Z,100497.53
2023-02-06T19:32:48.776Z,100499.41
2023-02-06T19:35:52.258Z,100493.44
2023-02-06T19:38:59.883Z,100491.81
2023-02-06T19:42:06.775Z,100491.03
2023-02-06T19:45:09.003Z,100489.50
2023-02-06T19:48:14.196Z,100489.69
2023-02-06T19:51:22.523Z,100488.13
2023-02-06T19:54:24.752Z,100488.13
2023-02-06T19:57:26.715Z,100489.06
2023-02-06T20:00:28.996Z,100480.50
2023-02-06T20:03:30.982Z,100484.22
2023-02-06T20:06:35.188Z,100481.78
2023-02-06T20:09:41.817Z,100484.59
2023-02-06T20:12:43.814Z,100482.19
2023-02-06T20:15:45.827Z,100485.03
2023-02-06T20:18:48.454Z,100486.09
2023-02-06T20:21:54.199Z,100488.88
2023-02-06T20:24:56.193Z,100491.59
2023-02-06T20:27:58.184Z,100494.38
2023-02-06T20:31:00.216Z,100493.69
2023-02-06T20:34:02.966Z,100498.88
2023-02-06T20:37:04.898Z,100496.41
2023-02-06T20:40:07.090Z,100501.06
2023-02-06T20:43:09.098Z,100502.69
2023-02-06T20:46:11.443Z,100504.19
2023-02-06T20:49:22.424Z,100512.84
2023-02-06T20:52:24.307Z,100516.16
2023-02-06T20:55:26.191Z,100517.78
2023-02-06T20:58:29.510Z,100516.81
2023-02-06T21:01:31.852Z,100521.91
2023-02-06T21:04:34.400Z,100525.28
2023-02-06T21:07:37.915Z,100518.16
2023-02-06T21:10:39.867Z,100524.22
2023-02-06T21:13:42.251Z,100526.66
2023-02-06T21:16:44.514Z,100526.69
2023-02-06T21:19:46.530Z,100523.13
2023-02-06T21:22:52.819Z,100524.03
2023-02-06T21:25:55.606Z,100516.94
2023-02-06T21:28:59.145Z,100516.84
2023-02-06T21:32:13.333Z,100519.53
2023-02-06T21:35:15.846Z,100510.59
2023-02-06T21:38:18.509Z,100507.63
2023-02-06T21:41:20.541Z,100510.13
2023-02-06T21:44:24.172Z,100508.03
2023-02-06T21:47:26.112Z,100521.78
2023-02-06T21:50:28.034Z,100514.13
2023-02-06T21:53:29.985Z,100517.50
2023-02-06T21:56:32.216Z,100520.22
2023-02-06T21:59:34.270Z,100511.69
2023-02-06T22:02:37.779Z,100510.94
2023-02-06T22:05:39.924Z,100505.84
2023-02-06T22:08:44.641Z,100503.53
2023-02-06T22:11:47.211Z,100504.59
2023-02-06T22:14:49.362Z,100503.81
2023-02-06T22:17:51.299Z,100497.91
2023-02-06T22:21:05.075Z,100499.13
2023-02-06T22:24:08.298Z,100508.81
2023-02-06T22:27:11.044Z,100513.28
2023-02-06T22:30:13.584Z,100514.31
2023-02-06T22:33:15.551Z,100513.53
2023-02-06T22:36:20.608Z,100517.16
2023-02-06T22:39:22.645Z,100512.03
2023-02-06T22:42:24.754Z,100517.31
2023-02-06T22:45:26.784Z,100525.28
2023-02-06T22:48:29.624Z,100516.75
2023-02-06T22:51:31.894Z,100519.53
2023-02-06T22:54:33.832Z,100518.00
2023-02-06T22:57:37.272Z,100517.25
2023-02-06T23:00:39.228Z,100513.91
2023-02-06T23:03:41.219Z,100511.50
2023-02-06T23:06:43.796Z,100511.81
2023-02-06T23:09:45.752Z,100520.66
2023-02-06T23:12:47.674Z,100521.66
2023-02-06T23:15:49.626Z,100517.41
2023-02-06T23:18:51.862Z,100521.16
2023-02-06T23:21:54.161Z,100529.88
2023-02-06T23:24:56.852Z,100519.50
2023-02-06T23:27:58.762Z,100528.41
2023-02-06T23:31:00.834Z,100529.28
2023-02-06T23:34:03.443Z,100537.25
2023-02-06T23:37:05.381Z,100528.69
2023-02-06T23:40:08.441Z,100541.00
2023-02-06T23:43:10.387Z,100540.22
2023-02-06T23:46:12.802Z,100537.72
2023-02-06T23:49:14.880Z,100535.22
2023-02-06T23:52:16.869Z,100539.75
2023-02-06T23:55:19.157Z,100541.50
2023-02-06T23:58:21.422Z,100543.34
